sensor_id;sensor_type;location;lat;lon;timestamp;P1;P2;P0
45312;PMS7003;68267;51.540;5.854;2023-07-13T09:17:05;4.33;7.2;5.35
45312;PMS7003;68267;51.540;5.854;2023-07-13T09:30:25;5.41;6.77;5.35
45312;PMS7003;68267;51.540;5.854;2023-07-13T09:43:44;7.45;8.29;6.33
45312;PMS7003;68267;51.540;5.854;2023-07-13T09:57:04;1.44;4.59;4.15
45312;PMS7003;68267;51.540;5.854;2023-07-13T10:10:24;1.32;4.48;3.71
45312;PMS7003;68267;51.540;5.854;2023-07-13T10:23:44;1.2;4.37;3.61
45312;PMS7003;68267;51.540;5.854;2023-07-13T10:37:03;1.44;4.59;3.82
45312;PMS7003;68267;51.540;5.854;2023-07-13T10:50:23;5.89;4.48;3.61
45312;PMS7003;68267;51.540;5.854;2023-07-13T11:03:42;1.08;4.26;3.82
45312;PMS7003;68267;51.540;5.854;2023-07-13T11:17:02;0.48;3.71;2.73
45312;PMS7003;68267;51.540;5.854;2023-07-13T11:30:22;0.6;3.82;3.28
45312;PMS7003;68267;51.540;5.854;2023-07-13T11:43:42;1.32;4.48;3.71
45312;PMS7003;68267;51.540;5.854;2023-07-13T11:57:01;1.56;4.7;3.61
45312;PMS7003;68267;51.540;5.854;2023-07-13T12:10:21;0.72;3.93;3.61
45312;PMS7003;68267;51.540;5.854;2023-07-13T12:23:41;8.89;5.13;4.15
45312;PMS7003;68267;51.540;5.854;2023-07-13T12:37:00;9.85;8.62;7.97
45312;PMS7003;68267;51.540;5.854;2023-07-13T12:50:20;7.69;9.49;8.4
45312;PMS7003;68267;51.540;5.854;2023-07-13T13:03:40;6.97;9.6;8.73
45312;PMS7003;68267;51.540;5.854;2023-07-13T13:16:59;4.21;7.09;6.66
45312;PMS7003;68267;51.540;5.854;2023-07-13T13:30:19;3.85;6.77;5.9
45312;PMS7003;68267;51.540;5.854;2023-07-13T13:43:39;2.4;5.46;5.13
45312;PMS7003;68267;51.540;5.854;2023-07-13T13:56:58;4.69;7.53;6.77
45312;PMS7003;68267;51.540;5.854;2023-07-13T14:10:18;7.81;10.36;9.27
45312;PMS7003;68267;51.540;5.854;2023-07-13T14:23:38;6.61;9.27;8.29
45312;PMS7003;68267;51.540;5.854;2023-07-13T14:36:57;7.09;9.71;8.51
45312;PMS7003;68267;51.540;5.854;2023-07-13T14:50:17;8.89;7.97;7.09
45312;PMS7003;68267;51.540;5.854;2023-07-13T15:03:36;6.01;6.55;6.22
45312;PMS7003;68267;51.540;5.854;2023-07-13T15:16:56;1.32;4.48;4.15
45312;PMS7003;68267;51.540;5.854;2023-07-13T15:30:16;0.01;2.84;2.52
45312;PMS7003;68267;51.540;5.854;2023-07-13T15:43:36;0.01;2.52;2.52
45312;PMS7003;68267;51.540;5.854;2023-07-13T15:56:55;0.01;3.17;2.84
45312;PMS7003;68267;51.540;5.854;2023-07-13T16:10:15;0.01;2.52;2.41
45312;PMS7003;68267;51.540;5.854;2023-07-13T16:23:35;0.84;4.04;3.39
45312;PMS7003;68267;51.540;5.854;2023-07-13T16:36:55;0.36;3.61;3.28
45312;PMS7003;68267;51.540;5.854;2023-07-13T16:50:14;0.12;3.39;3.17
45312;PMS7003;68267;51.540;5.854;2023-07-13T17:03:34;0.6;3.82;3.5
45312;PMS7003;68267;51.540;5.854;2023-07-13T17:16:54;2.88;4.37;3.28
45312;PMS7003;68267;51.540;5.854;2023-07-13T17:30:14;0.01;3.17;2.95
45312;PMS7003;68267;51.540;5.854;2023-07-13T17:43:34;0.72;3.93;3.5
45312;PMS7003;68267;51.540;5.854;2023-07-13T17:56:53;0.6;3.82;3.5
45312;PMS7003;68267;51.540;5.854;2023-07-13T18:10:13;0.84;4.04;3.71
45312;PMS7003;68267;51.540;5.854;2023-07-13T18:23:33;4.93;3.61;3.5
45312;PMS7003;68267;51.540;5.854;2023-07-13T18:36:52;0.6;3.82;3.39
45312;PMS7003;68267;51.540;5.854;2023-07-13T18:50:12;3.0;6.0;5.35
45312;PMS7003;68267;51.540;5.854;2023-07-13T19:03:32;0.6;3.82;3.5
45312;PMS7003;68267;51.540;5.854;2023-07-13T19:16:52;0.96;4.15;3.71
45312;PMS7003;68267;51.540;5.854;2023-07-13T19:30:12;0.84;4.04;3.71
45312;PMS7003;68267;51.540;5.854;2023-07-13T19:43:31;1.8;4.91;4.59
45312;PMS7003;68267;51.540;5.854;2023-07-13T19:56:51;4.93;5.13;4.8
45312;PMS7003;68267;51.540;5.854;2023-07-13T20:10:10;2.16;5.24;5.13
45312;PMS7003;68267;51.540;5.854;2023-07-13T20:23:30;2.04;5.13;4.7
45312;PMS7003;68267;51.540;5.854;2023-07-13T20:36:50;1.68;4.8;4.7
45312;PMS7003;68267;51.540;5.854;2023-07-13T20:50:10;1.68;4.8;4.48
45312;PMS7003;68267;51.540;5.854;2023-07-13T21:03:29;8.05;6.55;6.11
45312;PMS7003;68267;51.540;5.854;2023-07-13T21:16:49;5.77;8.51;8.08
45312;PMS7003;68267;51.540;5.854;2023-07-13T21:30:09;4.57;7.42;6.88
45312;PMS7003;68267;51.540;5.854;2023-07-13T21:43:28;5.41;8.18;8.08
45312;PMS7003;68267;51.540;5.854;2023-07-13T21:56:48;8.77;8.62;8.4
45312;PMS7003;68267;51.540;5.854;2023-07-13T22:10:08;7.21;9.82;9.6
45312;PMS7003;68267;51.540;5.854;2023-07-13T22:23:27;7.45;10.04;9.82
45312;PMS7003;68267;51.540;5.854;2023-07-13T22:36:47;11.77;11.35;10.8
45312;PMS7003;68267;51.540;5.854;2023-07-13T22:50:07;9.49;10.58;10.26
45312;PMS7003;68267;51.540;5.854;2023-07-13T23:03:27;8.17;10.69;9.71
45312;PMS7003;68267;51.540;5.854;2023-07-13T23:16:46;8.65;11.13;10.8
45312;PMS7003;68267;51.540;5.854;2023-07-13T23:30:06;10.69;11.35;10.8
45312;PMS7003;68267;51.540;5.854;2023-07-13T23:43:26;8.53;11.02;10.69
45312;PMS7003;68267;51.540;5.854;2023-07-13T23:56:46;9.85;11.45;10.91
